Time;durP1;ratioP1;P1;durP2;ratioP2;P2;SDS_P1;SDS_P2;PMS_P1;PMS_P2;Temp;Humidity;BMP_temperature;BMP_pressure;BME280_temperature;BME280_humidity;BME280_pressure;Samples;Min_cycle;Max_cycle;Signal;HPM_P1;HPM_P2
2023/09/27 00:00:09;;;;;;;38.40;35.30;;;14.30;94.60;;;;;;5012998;28;20095;-71
2023/09/27 00:02:35;;;;;;;48.67;44.80;;;14.30;94.50;;;;;;5024054;28;20046;-71
2023/09/27 00:05:02;;;;;;;46.53;43.40;;;14.30;94.60;;;;;;5008697;28;20305;-71
2023/09/27 00:07:28;;;;;;;37.50;34.63;;;14.30;94.60;;;;;;5001942;28;20290;-71
2023/09/27 00:09:54;;;;;;;37.63;34.67;;;14.20;94.60;;;;;;5003431;28;20281;-71
2023/09/27 00:12:20;;;;;;;46.07;42.77;;;14.20;94.50;;;;;;5000081;28;20073;-71
2023/09/27 00:14:46;;;;;;;43.87;40.83;;;14.20;94.60;;;;;;5004591;28;20045;-71
2023/09/27 00:17:12;;;;;;;41.67;38.20;;;14.20;94.70;;;;;;5027219;28;20280;-71
2023/09/27 00:19:38;;;;;;;39.20;36.20;;;14.10;94.60;;;;;;5005753;28;20107;-71
2023/09/27 00:22:03;;;;;;;43.30;39.83;;;14.10;94.70;;;;;;5004532;28;20278;-71
2023/09/27 00:24:29;;;;;;;36.80;33.90;;;14.10;94.80;;;;;;5008658;28;20045;-71
2023/09/27 00:26:55;;;;;;;35.90;33.10;;;14.10;94.80;;;;;;5007937;28;20038;-71
2023/09/27 00:29:20;;;;;;;34.83;31.93;;;14.10;94.90;;;;;;4998487;28;20782;-71
2023/09/27 00:31:46;;;;;;;41.77;38.27;;;14.10;94.90;;;;;;5010338;28;20042;-71
2023/09/27 00:34:12;;;;;;;38.40;35.50;;;14.00;94.90;;;;;;5006767;28;20117;-71
2023/09/27 00:36:38;;;;;;;39.03;36.00;;;14.00;95.00;;;;;;5001403;28;20061;-71
2023/09/27 00:39:04;;;;;;;42.93;39.83;;;14.00;95.10;;;;;;5004795;28;20284;-71
2023/09/27 00:41:29;;;;;;;38.87;36.17;;;14.00;95.00;;;;;;5007310;28;20056;-71
2023/09/27 00:43:55;;;;;;;42.70;39.50;;;14.00;95.00;;;;;;5008144;28;20112;-71
2023/09/27 00:46:22;;;;;;;49.90;46.60;;;14.00;95.20;;;;;;4989422;28;20045;-71
2023/09/27 00:48:48;;;;;;;39.23;36.37;;;14.00;95.20;;;;;;5006794;28;20041;-71
2023/09/27 00:51:14;;;;;;;44.13;41.10;;;14.00;95.20;;;;;;5004337;28;20285;-71
2023/09/27 00:53:41;;;;;;;49.37;46.00;;;13.90;95.30;;;;;;5007206;28;20094;-71
2023/09/27 00:56:08;;;;;;;38.50;35.63;;;14.00;95.40;;;;;;5007924;28;20523;-71
2023/09/27 00:58:36;;;;;;;45.53;42.50;;;13.90;95.50;;;;;;5007425;28;20281;-71
2023/09/27 01:01:02;;;;;;;40.47;37.67;;;13.90;95.50;;;;;;5006295;28;20662;-71
2023/09/27 01:03:27;;;;;;;39.77;36.87;;;13.90;95.50;;;;;;5005906;28;20306;-71
2023/09/27 01:05:54;;;;;;;58.70;55.00;;;13.90;95.50;;;;;;5004806;28;20042;-71
2023/09/27 01:08:19;;;;;;;36.93;34.13;;;13.90;95.50;;;;;;5006881;28;20418;-71
2023/09/27 01:10:46;;;;;;;40.13;37.20;;;13.90;95.50;;;;;;5005141;28;20276;-71
2023/09/27 01:13:12;;;;;;;38.33;35.40;;;13.90;95.60;;;;;;5000509;28;20622;-71
2023/09/27 01:15:38;;;;;;;42.20;39.23;;;13.90;95.70;;;;;;5007542;28;20358;-71
2023/09/27 01:18:04;;;;;;;49.57;46.23;;;13.90;95.70;;;;;;4997777;28;20285;-71
2023/09/27 01:20:32;;;;;;;55.23;51.53;;;13.90;95.80;;;;;;4997938;28;20038;-71
2023/09/27 01:23:00;;;;;;;46.47;43.13;;;13.90;95.80;;;;;;5007383;28;20052;-71
2023/09/27 01:25:28;;;;;;;41.23;38.30;;;13.90;95.80;;;;;;5007354;28;20311;-71
2023/09/27 01:27:54;;;;;;;49.10;45.93;;;13.90;95.80;;;;;;4987655;28;20301;-71
2023/09/27 01:30:19;;;;;;;39.23;36.27;;;13.80;95.80;;;;;;5004297;28;20332;-71
2023/09/27 01:32:45;;;;;;;44.43;41.33;;;13.80;95.90;;;;;;4986948;28;20467;-71
2023/09/27 01:35:11;;;;;;;39.33;36.50;;;13.80;95.80;;;;;;5003370;28;20129;-71
2023/09/27 01:37:36;;;;;;;37.87;34.77;;;13.70;95.90;;;;;;5007349;28;20089;-71
2023/09/27 01:40:08;;;;;;;48.37;44.97;;;13.70;95.80;;;;;;4997253;28;20042;-71
2023/09/27 01:42:33;;;;;;;33.03;30.43;;;13.60;95.90;;;;;;4998755;28;20057;-71
2023/09/27 01:44:59;;;;;;;49.97;46.67;;;13.60;96.10;;;;;;4998609;28;20300;-71
2023/09/27 01:47:24;;;;;;;33.17;30.60;;;13.50;96.00;;;;;;5003182;28;20092;-71
2023/09/27 01:49:51;;;;;;;42.53;39.67;;;13.50;96.20;;;;;;4981729;28;20482;-71
2023/09/27 01:52:17;;;;;;;43.40;40.10;;;13.40;96.20;;;;;;5003208;28;20038;-71
2023/09/27 01:54:42;;;;;;;38.43;35.37;;;13.40;96.40;;;;;;5002662;28;20387;-71
2023/09/27 01:57:08;;;;;;;49.30;45.83;;;13.30;96.40;;;;;;5007716;28;20383;-71
2023/09/27 01:59:34;;;;;;;41.87;38.97;;;13.30;96.40;;;;;;5004520;28;20056;-71
2023/09/27 02:01:59;;;;;;;41.03;38.00;;;13.20;96.40;;;;;;5004002;28;20038;-71
2023/09/27 02:04:25;;;;;;;39.47;36.47;;;13.20;96.40;;;;;;5003891;28;20045;-71
2023/09/27 02:06:50;;;;;;;38.23;35.40;;;13.20;96.40;;;;;;5005293;28;20137;-71
2023/09/27 02:09:16;;;;;;;39.57;36.57;;;13.10;96.40;;;;;;5000804;28;20058;-71
2023/09/27 02:11:42;;;;;;;40.13;37.33;;;13.00;96.50;;;;;;5004653;28;20046;-71
2023/09/27 02:14:07;;;;;;;31.83;28.93;;;13.00;96.70;;;;;;4998906;28;20217;-71
2023/09/27 02:16:33;;;;;;;39.20;36.17;;;13.00;96.70;;;;;;5005613;28;20046;-71
2023/09/27 02:18:59;;;;;;;39.83;36.73;;;13.00;96.80;;;;;;5003727;28;20053;-71
2023/09/27 02:21:25;;;;;;;44.90;41.73;;;12.90;96.90;;;;;;5011937;28;20508;-71
2023/09/27 02:23:50;;;;;;;35.27;32.47;;;13.00;97.00;;;;;;5007105;28;20042;-71
2023/09/27 02:26:16;;;;;;;40.73;37.67;;;12.90;97.00;;;;;;5010481;28;20095;-71
2023/09/27 02:28:43;;;;;;;32.10;29.17;;;12.90;97.20;;;;;;5004597;28;20092;-71
2023/09/27 02:31:12;;;;;;;38.77;35.37;;;12.90;97.10;;;;;;5010216;28;20054;-71
2023/09/27 02:33:39;;;;;;;39.03;35.53;;;12.90;97.20;;;;;;5001710;28;20855;-71
2023/09/27 02:36:05;;;;;;;42.73;39.33;;;12.90;97.30;;;;;;4999711;28;20364;-71
2023/09/27 02:38:30;;;;;;;38.83;35.63;;;12.90;97.30;;;;;;5006651;28;20295;-71
2023/09/27 02:40:56;;;;;;;37.93;34.67;;;12.80;97.40;;;;;;5004111;28;20281;-71
2023/09/27 02:43:22;;;;;;;63.60;59.23;;;12.80;97.40;;;;;;5002641;28;20045;-71
2023/09/27 02:45:49;;;;;;;40.07;36.83;;;12.80;97.60;;;;;;4993780;28;20045;-71
2023/09/27 02:48:15;;;;;;;52.77;49.07;;;12.80;97.70;;;;;;5009757;28;20693;-71
2023/09/27 02:50:47;;;;;;;53.37;49.53;;;12.80;97.80;;;;;;5009149;28;20280;-71
2023/09/27 02:53:13;;;;;;;44.63;41.37;;;12.80;97.90;;;;;;5008123;28;20486;-71
2023/09/27 02:55:39;;;;;;;45.57;42.10;;;12.80;98.00;;;;;;5009383;28;20292;-71
2023/09/27 02:58:05;;;;;;;53.37;49.37;;;12.70;97.90;;;;;;5009292;28;20137;-71
2023/09/27 03:00:33;;;;;;;38.77;35.47;;;12.70;97.90;;;;;;5005697;28;20064;-71
2023/09/27 03:03:00;;;;;;;46.60;42.77;;;12.70;98.00;;;;;;5007673;28;20076;-71
2023/09/27 03:05:26;;;;;;;42.93;39.33;;;12.70;98.20;;;;;;5002057;28;21255;-71
2023/09/27 03:07:52;;;;;;;41.93;38.53;;;12.70;98.30;;;;;;5008900;28;20293;-71
2023/09/27 03:10:18;;;;;;;45.17;41.67;;;12.60;98.20;;;;;;5009411;28;20288;-71
2023/09/27 03:12:51;;;;;;;44.17;40.77;;;12.60;98.30;;;;;;4993042;28;20319;-71
2023/09/27 03:15:17;;;;;;;52.27;48.37;;;12.50;98.20;;;;;;5001800;28;20375;-71
2023/09/27 03:17:44;;;;;;;41.40;37.87;;;12.50;98.30;;;;;;4992471;28;20292;-71
2023/09/27 03:20:18;;;;;;;38.70;35.10;;;12.50;98.20;;;;;;5009379;28;20281;-71
2023/09/27 03:22:46;;;;;;;41.50;38.22;;;12.40;98.30;;;;;;5009591;28;20288;-71
2023/09/27 03:25:12;;;;;;;45.10;41.63;;;12.40;98.30;;;;;;5005403;28;20099;-71
2023/09/27 03:27:38;;;;;;;34.23;31.03;;;12.30;98.40;;;;;;5003763;28;20827;-71
2023/09/27 03:30:06;;;;;;;43.63;40.17;;;12.30;98.40;;;;;;5010031;28;20116;-71
2023/09/27 03:32:32;;;;;;;44.40;41.13;;;12.30;98.50;;;;;;5002959;28;20876;-71
2023/09/27 03:34:59;;;;;;;46.90;43.43;;;12.30;98.60;;;;;;4987816;28;20363;-71
2023/09/27 03:37:25;;;;;;;35.93;32.80;;;12.20;98.80;;;;;;4992291;28;20292;-71
2023/09/27 03:39:52;;;;;;;44.43;40.97;;;12.20;98.80;;;;;;5002792;28;20288;-71
2023/09/27 03:42:20;;;;;;;40.20;36.87;;;12.20;98.80;;;;;;5001729;28;20080;-71
2023/09/27 03:44:47;;;;;;;42.23;39.00;;;12.20;99.00;;;;;;5005735;28;20435;-71
2023/09/27 03:47:12;;;;;;;43.90;40.40;;;12.20;99.00;;;;;;5009122;28;20842;-71
2023/09/27 03:49:40;;;;;;;44.63;41.13;;;12.20;99.10;;;;;;5005379;28;20304;-71
2023/09/27 03:52:09;;;;;;;48.13;44.07;;;12.20;99.10;;;;;;5000753;28;20056;-71
2023/09/27 03:54:35;;;;;;;44.10;40.70;;;12.20;99.20;;;;;;4992217;28;20308;-71
2023/09/27 03:57:00;;;;;;;43.20;39.03;;;12.10;99.20;;;;;;5006875;28;20304;-71
2023/09/27 03:59:26;;;;;;;46.17;42.57;;;12.10;99.20;;;;;;5007090;28;20188;-71
2023/09/27 04:01:52;;;;;;;47.87;44.00;;;12.10;99.10;;;;;;5006798;28;20048;-71
2023/09/27 04:04:18;;;;;;;60.10;55.53;;;12.10;99.30;;;;;;5008407;28;20596;-71
2023/09/27 04:06:44;;;;;;;46.87;43.17;;;12.10;99.40;;;;;;5006841;28;20041;-71
2023/09/27 04:09:10;;;;;;;47.73;43.87;;;12.00;99.50;;;;;;5007832;28;20301;-71
2023/09/27 04:11:37;;;;;;;56.97;52.80;;;12.10;99.50;;;;;;4991772;28;20284;-71
2023/09/27 04:14:03;;;;;;;53.47;48.97;;;12.10;99.60;;;;;;5004560;28;20276;-71
2023/09/27 04:16:30;;;;;;;48.20;43.93;;;12.10;99.60;;;;;;5005949;28;20648;-71
2023/09/27 04:18:57;;;;;;;45.23;41.23;;;12.00;99.60;;;;;;4988746;28;20353;-71
2023/09/27 04:21:23;;;;;;;50.67;46.77;;;12.00;99.70;;;;;;4991560;28;20281;-71
2023/09/27 04:23:56;;;;;;;52.13;47.80;;;12.00;99.70;;;;;;4991816;28;20295;-71
2023/09/27 04:26:23;;;;;;;50.70;45.67;;;12.00;99.70;;;;;;5006447;28;20745;-71
2023/09/27 04:28:53;;;;;;;47.03;43.00;;;11.90;99.80;;;;;;5003585;28;20368;-71
2023/09/27 04:31:19;;;;;;;47.70;43.50;;;11.90;99.80;;;;;;5001584;28;20365;-71
2023/09/27 04:33:47;;;;;;;49.63;45.40;;;11.90;99.90;;;;;;5007337;28;20359;-71
2023/09/27 04:36:16;;;;;;;49.10;44.03;;;11.90;99.90;;;;;;5004143;28;20277;-71
2023/09/27 04:38:44;;;;;;;62.70;57.40;;;11.90;99.90;;;;;;4995570;28;20649;-71
2023/09/27 04:41:09;;;;;;;75.27;69.40;;;11.90;99.90;;;;;;5002745;28;20642;-71
2023/09/27 04:43:35;;;;;;;64.33;58.50;;;11.90;99.90;;;;;;4991636;28;20280;-71
2023/09/27 04:46:01;;;;;;;65.47;60.07;;;11.90;99.90;;;;;;5001140;28;20069;-71
2023/09/27 04:48:27;;;;;;;58.97;53.97;;;11.90;99.90;;;;;;5004255;28;20033;-71
2023/09/27 04:50:53;;;;;;;68.67;63.40;;;11.90;99.90;;;;;;5002952;28;20064;-71
2023/09/27 04:53:18;;;;;;;65.37;60.40;;;11.90;99.90;;;;;;5003943;28;20041;-71
2023/09/27 04:55:44;;;;;;;65.57;60.27;;;11.90;99.90;;;;;;5008010;28;20085;-71
2023/09/27 04:58:10;;;;;;;55.33;50.67;;;11.80;99.90;;;;;;5003610;28;20038;-71
2023/09/27 05:00:36;;;;;;;55.20;50.50;;;11.80;99.90;;;;;;4991969;28;20073;-71
2023/09/27 05:03:02;;;;;;;55.33;50.73;;;11.80;99.90;;;;;;5007617;28;20041;-71
2023/09/27 05:05:28;;;;;;;55.30;50.83;;;11.80;99.90;;;;;;5016158;28;20045;-71
2023/09/27 05:07:53;;;;;;;96.50;90.90;;;11.70;99.90;;;;;;4999749;28;20289;-71
2023/09/27 05:10:19;;;;;;;90.70;85.63;;;11.70;99.90;;;;;;4998873;28;20068;-71
2023/09/27 05:12:45;;;;;;;88.37;83.10;;;11.70;99.90;;;;;;4997513;28;20100;-71
2023/09/27 05:15:10;;;;;;;96.80;90.67;;;11.70;99.90;;;;;;5007415;28;20037;-71
2023/09/27 05:17:36;;;;;;;89.93;84.50;;;11.70;99.90;;;;;;5000936;28;20060;-71
2023/09/27 05:20:10;;;;;;;95.43;89.23;;;11.80;99.90;;;;;;5006760;28;20038;-71
2023/09/27 05:22:40;;;;;;;95.00;89.37;;;11.80;99.90;;;;;;5002510;28;20062;-71
2023/09/27 05:25:07;;;;;;;101.13;95.20;;;11.80;99.90;;;;;;4996970;28;20304;-71
2023/09/27 05:27:34;;;;;;;86.10;80.83;;;11.80;99.90;;;;;;4993386;28;20463;-71
2023/09/27 05:30:00;;;;;;;89.43;83.67;;;11.80;99.90;;;;;;4999858;28;20281;-70
2023/09/27 05:32:27;;;;;;;85.13;79.70;;;11.90;99.90;;;;;;5002106;28;20780;-70
2023/09/27 05:34:53;;;;;;;84.50;79.03;;;11.90;99.90;;;;;;5006331;28;20317;-70
2023/09/27 05:37:18;;;;;;;88.80;83.37;;;11.90;99.90;;;;;;5006366;28;20313;-70
2023/09/27 05:39:44;;;;;;;83.63;78.10;;;11.90;99.90;;;;;;5008179;28;20116;-70
2023/09/27 05:42:10;;;;;;;78.60;73.40;;;11.90;99.90;;;;;;4997828;28;20045;-70
2023/09/27 05:44:36;;;;;;;78.73;73.70;;;11.90;99.90;;;;;;5004223;28;20454;-70
2023/09/27 05:47:01;;;;;;;80.90;75.83;;;11.90;99.90;;;;;;4999767;28;20122;-70
2023/09/27 05:49:27;;;;;;;97.87;92.00;;;11.90;99.90;;;;;;5004787;28;20069;-70
2023/09/27 05:51:53;;;;;;;111.93;105.43;;;11.90;99.90;;;;;;4983278;28;20038;-70
2023/09/27 05:54:19;;;;;;;81.13;75.80;;;11.90;99.90;;;;;;5009370;28;20069;-70
2023/09/27 05:56:50;;;;;;;88.60;83.10;;;11.90;99.90;;;;;;5005842;28;20077;-70
2023/09/27 05:59:16;;;;;;;86.23;81.00;;;12.00;99.90;;;;;;5011457;28;20744;-70
2023/09/27 06:01:42;;;;;;;82.27;77.27;;;12.00;99.90;;;;;;5010381;28;20372;-70
2023/09/27 06:04:07;;;;;;;94.80;89.13;;;12.10;99.90;;;;;;5025064;28;20050;-70
2023/09/27 06:06:34;;;;;;;93.70;88.10;;;12.10;99.90;;;;;;5011548;28;20305;-70
2023/09/27 06:09:00;;;;;;;96.03;90.10;;;12.10;99.90;;;;;;5007543;28;20070;-70
2023/09/27 06:11:26;;;;;;;89.80;84.10;;;12.10;99.90;;;;;;5007579;28;20277;-70
2023/09/27 06:13:51;;;;;;;98.63;92.57;;;12.20;99.90;;;;;;4999172;28;20033;-70
2023/09/27 06:16:17;;;;;;;97.13;91.43;;;12.20;99.90;;;;;;5011011;28;20042;-70
2023/09/27 06:18:43;;;;;;;95.47;90.10;;;12.20;99.90;;;;;;5010648;28;20037;-70
2023/09/27 06:21:09;;;;;;;77.70;72.60;;;12.30;99.90;;;;;;5010686;28;20490;-70
2023/09/27 06:23:38;;;;;;;168.67;160.10;;;12.30;99.90;;;;;;5005573;28;20288;-70
2023/09/27 06:26:05;;;;;;;160.53;152.10;;;12.30;99.90;;;;;;5011212;28;20096;-70
2023/09/27 06:28:31;;;;;;;162.90;154.57;;;12.40;99.90;;;;;;5005259;28;20285;-70
2023/09/27 06:30:57;;;;;;;188.03;178.80;;;12.50;99.90;;;;;;5010225;28;20281;-70
2023/09/27 06:33:22;;;;;;;179.93;170.97;;;12.60;99.90;;;;;;5032327;28;20401;-70
2023/09/27 06:35:48;;;;;;;172.50;163.67;;;12.70;99.90;;;;;;5012586;28;20236;-70
2023/09/27 06:38:19;;;;;;;213.27;202.77;;;12.80;99.90;;;;;;4999594;28;20115;-70
2023/09/27 06:40:44;;;;;;;196.67;186.93;;;13.00;99.90;;;;;;5007663;28;20041;-70
2023/09/27 06:43:10;;;;;;;207.10;197.17;;;13.20;99.90;;;;;;5009736;28;20292;-71
2023/09/27 06:45:38;;;;;;;195.33;185.43;;;13.30;99.90;;;;;;5007591;28;20451;-70
2023/09/27 06:48:04;;;;;;;212.47;202.37;;;13.50;99.90;;;;;;5005514;28;20169;-70
2023/09/27 06:50:30;;;;;;;206.77;196.57;;;13.60;99.90;;;;;;5004346;28;20390;-70
2023/09/27 06:52:56;;;;;;;207.93;197.67;;;13.70;99.90;;;;;;5003594;28;20596;-70
2023/09/27 06:55:22;;;;;;;241.43;229.83;;;13.80;99.90;;;;;;4999122;28;20046;-71
2023/09/27 06:57:52;;;;;;;276.07;263.13;;;13.90;99.90;;;;;;5009241;28;20423;-70
2023/09/27 07:00:19;;;;;;;228.77;217.53;;;14.10;99.90;;;;;;5001287;28;20300;-70
2023/09/27 07:02:48;;;;;;;213.40;203.03;;;14.10;99.90;;;;;;5007315;28;20372;-70
2023/09/27 07:05:15;;;;;;;252.97;241.20;;;14.20;99.90;;;;;;5009559;28;20309;-70
2023/09/27 07:07:41;;;;;;;288.83;275.20;;;14.30;99.90;;;;;;5000369;28;20644;-70
2023/09/27 07:10:08;;;;;;;270.60;258.03;;;14.40;99.90;;;;;;5007369;28;20408;-70
2023/09/27 07:12:34;;;;;;;310.77;296.00;;;14.50;99.90;;;;;;5001039;28;20042;-70
2023/09/27 07:15:00;;;;;;;266.33;253.47;;;14.50;99.90;;;;;;5014049;28;20284;-70
2023/09/27 07:17:26;;;;;;;311.80;297.20;;;14.60;99.90;;;;;;5027102;28;20641;-70
2023/09/27 07:19:53;;;;;;;294.97;280.93;;;14.70;99.90;;;;;;5009595;28;20588;-70
2023/09/27 07:22:19;;;;;;;275.43;262.63;;;14.80;99.90;;;;;;5001193;28;20073;-70
2023/09/27 07:24:45;;;;;;;270.30;257.70;;;14.80;99.90;;;;;;4995626;28;20305;-70
2023/09/27 07:27:12;;;;;;;208.63;197.93;;;14.90;99.90;;;;;;5010448;28;20656;-70
2023/09/27 07:29:37;;;;;;;253.93;241.83;;;15.00;99.90;;;;;;5003329;28;20318;-70
2023/09/27 07:32:04;;;;;;;234.83;223.50;;;15.10;99.90;;;;;;4998331;28;20789;-70
2023/09/27 07:34:30;;;;;;;224.80;213.20;;;15.20;99.90;;;;;;5008423;28;20037;-70
2023/09/27 07:36:56;;;;;;;249.70;237.27;;;15.30;99.90;;;;;;5007466;28;20394;-70
2023/09/27 07:39:23;;;;;;;271.43;258.47;;;15.30;99.90;;;;;;4998513;28;20281;-70
2023/09/27 07:41:49;;;;;;;289.40;275.63;;;15.40;99.90;;;;;;5007497;28;20100;-70
2023/09/27 07:44:17;;;;;;;273.40;260.47;;;15.60;99.90;;;;;;5004310;28;20322;-70
2023/09/27 07:46:44;;;;;;;246.60;234.70;;;15.70;99.90;;;;;;4991389;28;20416;-70
2023/09/27 07:49:10;;;;;;;243.93;231.87;;;15.70;99.90;;;;;;5009307;28;20284;-70
2023/09/27 07:51:36;;;;;;;266.53;253.67;;;15.90;99.90;;;;;;5008669;28;20269;-70
2023/09/27 07:54:04;;;;;;;274.13;261.00;;;16.10;99.90;;;;;;5000678;28;20334;-70
2023/09/27 07:56:36;;;;;;;277.80;264.30;;;16.20;99.90;;;;;;4999769;28;20522;-70
2023/09/27 07:59:03;;;;;;;302.83;288.13;;;16.40;99.90;;;;;;5002670;28;20281;-70
2023/09/27 08:01:29;;;;;;;289.53;276.03;;;16.50;99.90;;;;;;5004695;28;20769;-71
2023/09/27 08:04:05;;;;;;;259.60;246.63;;;16.70;99.90;;;;;;5002055;28;20281;-70
2023/09/27 08:06:33;;;;;;;270.57;257.10;;;16.90;99.90;;;;;;5007548;28;20075;-70
2023/09/27 08:08:59;;;;;;;336.27;319.97;;;17.00;99.90;;;;;;5009561;28;20296;-70
2023/09/27 08:11:24;;;;;;;226.07;214.43;;;17.10;99.80;;;;;;5008226;28;20797;-70
2023/09/27 08:13:50;;;;;;;308.17;293.57;;;17.30;99.50;;;;;;5020135;28;20283;-70
2023/09/27 08:16:16;;;;;;;351.23;334.17;;;17.40;99.30;;;;;;5005288;28;20120;-70
2023/09/27 08:18:42;;;;;;;354.67;337.97;;;17.50;99.30;;;;;;5006133;28;20104;-70
2023/09/27 08:21:09;;;;;;;342.37;325.87;;;17.60;99.10;;;;;;5002066;28;20281;-70
2023/09/27 08:23:35;;;;;;;398.43;379.47;;;17.80;98.80;;;;;;5006482;28;20130;-70
2023/09/27 08:26:01;;;;;;;385.10;366.37;;;17.90;98.50;;;;;;5002510;28;20389;-70
2023/09/27 08:28:29;;;;;;;309.40;294.70;;;18.00;98.40;;;;;;5001901;28;20355;-70
2023/09/27 08:30:59;;;;;;;278.87;265.10;;;18.10;98.40;;;;;;5009136;28;20397;-70
2023/09/27 08:33:25;;;;;;;388.13;369.67;;;18.30;98.10;;;;;;5001674;28;20168;-70
2023/09/27 08:35:53;;;;;;;416.40;396.80;;;18.50;98.00;;;;;;5001937;28;20351;-70
2023/09/27 08:38:19;;;;;;;420.43;400.17;;;18.60;97.10;;;;;;4997743;28;20482;-70
2023/09/27 08:40:48;;;;;;;415.30;395.00;;;18.80;97.00;;;;;;4982715;28;20053;-71
2023/09/27 08:43:17;;;;;;;487.50;463.50;;;18.90;96.30;;;;;;5007994;28;20097;-71
2023/09/27 08:45:45;;;;;;;407.97;388.70;;;19.10;96.20;;;;;;4988054;28;20049;-71
2023/09/27 08:48:16;;;;;;;419.40;399.50;;;19.20;95.50;;;;;;5003586;28;20069;-71
2023/09/27 08:50:42;;;;;;;449.83;428.50;;;19.30;95.20;;;;;;5005041;28;20038;-71
2023/09/27 08:53:10;;;;;;;435.90;415.57;;;19.30;94.10;;;;;;5006526;28;20042;-71
2023/09/27 08:55:38;;;;;;;399.50;380.83;;;19.40;94.60;;;;;;5002990;28;20060;-71
2023/09/27 08:58:06;;;;;;;361.37;344.53;;;19.40;94.60;;;;;;4999486;28;20528;-71
2023/09/27 09:00:32;;;;;;;408.20;389.10;;;19.50;94.30;;;;;;5001367;28;20037;-71
2023/09/27 09:03:00;;;;;;;400.60;382.07;;;19.50;93.00;;;;;;5006638;28;20085;-71
2023/09/27 09:05:30;;;;;;;331.47;316.23;;;19.50;93.40;;;;;;4991439;28;20408;-71
2023/09/27 09:07:57;;;;;;;334.07;319.20;;;19.70;93.50;;;;;;5002453;28;20053;-70
2023/09/27 09:10:23;;;;;;;296.33;282.47;;;19.90;93.60;;;;;;4999960;28;20046;-71
2023/09/27 09:12:50;;;;;;;290.87;277.80;;;20.00;93.50;;;;;;5007483;28;20038;-71
2023/09/27 09:15:40;;;;;;;300.80;287.23;;;20.20;92.90;;;;;;5006894;28;20054;-71
2023/09/27 09:18:10;;;;;;;312.90;298.40;;;20.40;92.00;;;;;;5001741;28;20107;-71
2023/09/27 09:20:54;;;;;;;323.53;308.87;;;20.50;91.30;;;;;;5002895;28;20052;-71
2023/09/27 09:23:29;;;;;;;326.07;311.17;;;20.60;91.10;;;;;;5003077;28;20052;-71
2023/09/27 09:25:56;;;;;;;309.45;295.30;;;20.80;90.40;;;;;;5010599;28;20046;-71
2023/09/27 09:28:24;;;;;;;262.27;250.13;;;20.90;89.60;;;;;;5004585;28;20124;-71
2023/09/27 09:30:50;;;;;;;272.93;260.50;;;20.90;88.10;;;;;;5010759;28;20046;-71
2023/09/27 09:33:17;;;;;;;295.60;282.47;;;21.00;89.30;;;;;;5013622;28;20374;-71
2023/09/27 09:35:43;;;;;;;294.83;281.50;;;21.00;87.80;;;;;;5009261;28;20045;-71
2023/09/27 09:38:08;;;;;;;273.00;260.40;;;21.00;88.60;;;;;;5010241;28;20111;-71
2023/09/27 09:40:57;;;;;;;251.37;240.07;;;21.00;88.70;;;;;;5010528;28;20383;-71
2023/09/27 09:43:31;;;;;;;279.80;267.00;;;21.10;88.30;;;;;;5011094;28;20417;-71
2023/09/27 09:45:57;;;;;;;292.53;279.17;;;21.00;86.50;;;;;;5006006;28;20038;-71
2023/09/27 09:48:23;;;;;;;359.97;342.77;;;21.00;86.40;;;;;;4988580;28;20076;-71
2023/09/27 09:50:49;;;;;;;333.27;317.77;;;21.00;86.40;;;;;;5011403;28;20038;-71
2023/09/27 09:53:17;;;;;;;376.93;359.23;;;20.90;86.90;;;;;;5003441;28;20034;-71
2023/09/27 09:55:49;;;;;;;368.60;351.70;;;20.90;87.50;;;;;;5014168;28;20045;-71
2023/09/27 09:58:29;;;;;;;300.67;286.70;;;20.80;87.20;;;;;;5015835;28;20046;-71
2023/09/27 10:00:58;;;;;;;337.60;322.20;;;20.80;87.40;;;;;;4996781;28;20046;-71
2023/09/27 10:03:30;;;;;;;299.20;285.40;;;20.60;86.80;;;;;;5010849;28;20111;-71
2023/09/27 10:05:56;;;;;;;274.70;261.83;;;20.50;86.10;;;;;;5025319;28;20113;-71
2023/09/27 10:08:25;;;;;;;248.43;236.27;;;20.30;86.60;;;;;;5001678;28;20074;-71
2023/09/27 10:10:50;;;;;;;251.17;239.57;;;20.20;87.00;;;;;;5006318;28;20050;-71
2023/09/27 10:13:18;;;;;;;216.10;205.73;;;20.20;87.50;;;;;;5010179;28;20943;-71
2023/09/27 10:15:44;;;;;;;298.93;285.30;;;20.10;87.70;;;;;;5006209;28;20057;-72
2023/09/27 10:18:22;;;;;;;233.97;223.10;;;20.10;87.20;;;;;;5010195;28;20041;-72
2023/09/27 10:21:00;;;;;;;281.00;268.47;;;20.10;87.50;;;;;;5007615;28;20417;-71
2023/09/27 10:23:26;;;;;;;208.63;198.37;;;20.10;87.50;;;;;;5010939;28;20038;-72
2023/09/27 10:25:52;;;;;;;275.47;262.53;;;20.20;87.60;;;;;;5010675;28;20065;-72
2023/09/27 10:28:17;;;;;;;427.30;406.67;;;20.20;87.60;;;;;;5008268;28;20034;-71
2023/09/27 10:30:48;;;;;;;409.67;390.30;;;20.30;87.50;;;;;;5006621;28;20544;-72
2023/09/27 10:33:23;;;;;;;431.33;410.83;;;20.30;87.40;;;;;;4997108;28;20096;-72
2023/09/27 10:36:01;;;;;;;396.13;377.97;;;20.40;87.00;;;;;;5011983;28;20053;-71
2023/09/27 10:38:49;;;;;;;358.53;341.70;;;20.40;87.00;;;;;;5008458;28;20481;-71
2023/09/27 10:41:34;;;;;;;349.77;333.30;;;20.50;86.10;;;;;;5004237;28;20050;-72
2023/09/27 10:44:00;;;;;;;328.25;313.00;;;20.50;85.60;;;;;;5010027;28;20050;-71
2023/09/27 10:46:26;;;;;;;331.77;316.47;;;20.50;85.00;;;;;;5009550;28;20146;-72
2023/09/27 10:48:53;;;;;;;389.90;369.67;;;20.50;84.90;;;;;;5009098;28;20117;-72
2023/09/27 10:51:21;;;;;;;346.30;330.03;;;20.60;85.10;;;;;;5009027;28;20034;-71
2023/09/27 10:53:48;;;;;;;329.43;314.37;;;20.60;85.30;;;;;;5009585;28;20037;-72
2023/09/27 10:56:15;;;;;;;397.80;379.23;;;20.70;85.40;;;;;;5002903;28;20434;-72
2023/09/27 10:58:45;;;;;;;484.67;460.77;;;20.70;85.10;;;;;;5010828;28;20041;-71
2023/09/27 11:01:11;;;;;;;330.97;315.67;;;20.70;85.20;;;;;;4997232;28;20042;-72
2023/09/27 11:03:40;;;;;;;370.53;353.43;;;20.70;85.30;;;;;;5013168;28;20076;-72
2023/09/27 11:06:14;;;;;;;333.50;318.20;;;20.70;84.50;;;;;;5012078;28;20577;-72
2023/09/27 11:08:40;;;;;;;373.47;356.27;;;20.60;84.40;;;;;;5008559;28;20054;-72
2023/09/27 11:11:11;;;;;;;315.60;301.00;;;20.60;84.60;;;;;;5015526;28;20046;-71
2023/09/27 11:13:46;;;;;;;326.93;312.17;;;20.60;84.80;;;;;;5006089;28;20042;-72
2023/09/27 11:16:18;;;;;;;333.00;317.73;;;20.60;84.60;;;;;;5012464;28;20065;-72
2023/09/27 11:18:57;;;;;;;287.63;274.53;;;20.60;84.70;;;;;;5024243;28;20054;-72
2023/09/27 11:21:24;;;;;;;324.87;310.03;;;20.60;84.40;;;;;;5002570;28;20500;-73
2023/09/27 11:24:00;;;;;;;328.83;313.80;;;20.70;84.40;;;;;;5009119;28;20398;-72
2023/09/27 11:26:31;;;;;;;297.07;283.53;;;20.70;84.30;;;;;;5007339;28;20057;-72
2023/09/27 11:29:09;;;;;;;316.33;301.90;;;20.70;84.40;;;;;;5012172;28;20045;-72
2023/09/27 11:31:38;;;;;;;236.43;225.73;;;20.70;83.90;;;;;;5006689;28;20052;-72
2023/09/27 11:34:17;;;;;;;297.87;284.47;;;20.70;83.90;;;;;;5012544;28;20041;-71
2023/09/27 11:36:44;;;;;;;325.43;310.90;;;20.70;83.80;;;;;;5010498;28;20122;-72
2023/09/27 11:39:10;;;;;;;292.27;278.87;;;20.70;84.00;;;;;;5010343;28;20045;-72
2023/09/27 11:41:36;;;;;;;172.83;163.90;;;20.70;84.50;;;;;;5017158;28;20041;-72
2023/09/27 11:44:18;;;;;;;389.40;371.93;;;20.80;84.20;;;;;;5012631;28;20494;-71
2023/09/27 11:46:45;;;;;;;389.13;371.40;;;20.90;84.50;;;;;;5015918;28;20088;-71
2023/09/27 11:49:10;;;;;;;413.53;394.03;;;21.00;84.50;;;;;;5026473;28;20474;-72
2023/09/27 11:51:36;;;;;;;398.80;380.47;;;21.20;84.10;;;;;;5012390;28;20115;-71
2023/09/27 11:54:04;;;;;;;400.53;382.10;;;21.40;83.80;;;;;;5007982;28;20049;-72
2023/09/27 11:56:30;;;;;;;316.07;300.97;;;21.50;83.10;;;;;;5015231;28;20493;-71
2023/09/27 11:58:56;;;;;;;351.57;335.23;;;21.60;82.20;;;;;;5010337;28;20042;-72
2023/09/27 12:01:22;;;;;;;370.70;353.90;;;21.80;82.20;;;;;;5008850;28;20048;-71
2023/09/27 12:03:47;;;;;;;247.53;235.93;;;21.90;81.90;;;;;;5006303;28;20045;-73
2023/09/27 12:06:13;;;;;;;409.93;391.47;;;22.10;81.50;;;;;;5005135;28;20131;-72
2023/09/27 12:08:40;;;;;;;384.67;367.10;;;22.20;80.90;;;;;;5002669;28;20058;-72
2023/09/27 12:11:07;;;;;;;330.50;315.40;;;22.40;81.20;;;;;;5002565;28;20465;-72
2023/09/27 12:13:32;;;;;;;358.47;342.30;;;22.60;79.90;;;;;;5001247;28;20038;-72
2023/09/27 12:15:58;;;;;;;311.97;298.30;;;22.60;78.40;;;;;;5024622;28;20405;-73
2023/09/27 12:18:24;;;;;;;269.67;257.80;;;22.70;78.50;;;;;;5014660;28;20049;-72